APG100 RPVE-RPLL
Flight info
| Callsign | APG100 |
|---|---|
| Flight time | 1h 5m |
| Altitude | 24000 |
| Route | MINOR8A MINOR B473 LAIYA LAIYA7R |
| Aircraft | A320/M-SDE3FGHIRWY/LB1 |
Departure
| Time | 2026-05-09 13:50 |
|---|---|
| Airport | Godofredo P. Ramos Airport (RPVE) |
Arrival
| Time | 2026-05-09 14:56 |
|---|---|
| Airport | Ninoy Aquino International Airport (RPLL) |
| Time | Latitude | Longitude | Altitude | Speed | Heading |
|---|---|---|---|---|---|
| 2026-05-09 13:24 | 11.92575 | 121.96273 | 27 ft | 0 kts | 63° |
| 2026-05-09 13:42 | 11.92569 | 121.96262 | 26 ft | 2 kts | 62° |
| 2026-05-09 13:42 | 11.92562 | 121.96247 | 26 ft | 2 kts | 63° |
| 2026-05-09 13:42 | 11.92558 | 121.96240 | 26 ft | 0 kts | 63° |
| 2026-05-09 13:43 | 11.92559 | 121.96240 | 26 ft | 0 kts | 63° |
| 2026-05-09 13:45 | 11.92559 | 121.96241 | 26 ft | 1 kts | 63° |
| 2026-05-09 13:45 | 11.92566 | 121.96240 | 26 ft | 1 kts | 350° |
| 2026-05-09 13:45 | 11.92584 | 121.96228 | 26 ft | 5 kts | 330° |
| 2026-05-09 13:46 | 11.92631 | 121.96205 | 26 ft | 8 kts | 338° |
| 2026-05-09 13:46 | 11.92681 | 121.96184 | 26 ft | 7 kts | 335° |
| 2026-05-09 13:46 | 11.92723 | 121.96162 | 26 ft | 6 kts | 333° |
| 2026-05-09 13:46 | 11.92761 | 121.96142 | 27 ft | 6 kts | 333° |
| 2026-05-09 13:47 | 11.92795 | 121.96120 | 28 ft | 7 kts | 316° |
| 2026-05-09 13:47 | 11.92783 | 121.96047 | 27 ft | 15 kts | 242° |
| 2026-05-09 13:47 | 11.92721 | 121.95924 | 27 ft | 24 kts | 243° |
| 2026-05-09 13:47 | 11.92631 | 121.95744 | 27 ft | 32 kts | 243° |
| 2026-05-09 13:48 | 11.92527 | 121.95539 | 26 ft | 30 kts | 243° |
| 2026-05-09 13:48 | 11.92447 | 121.95381 | 25 ft | 25 kts | 242° |
| 2026-05-09 13:48 | 11.92363 | 121.95218 | 24 ft | 27 kts | 243° |
| 2026-05-09 13:48 | 11.92297 | 121.95085 | 28 ft | 16 kts | 233° |
| 2026-05-09 13:49 | 11.92251 | 121.95027 | 27 ft | 5 kts | 289° |
| 2026-05-09 13:49 | 11.92267 | 121.95033 | 27 ft | 2 kts | 37° |
| 2026-05-09 13:49 | 11.92286 | 121.95060 | 27 ft | 4 kts | 64° |
| 2026-05-09 13:49 | 11.92288 | 121.95063 | 26 ft | 0 kts | 63° |
| 2026-05-09 13:50 | 11.92335 | 121.95159 | 26 ft | 51 kts | 63° |
| 2026-05-09 13:50 | 11.92627 | 121.95740 | 27 ft | 129 kts | 63° |
| 2026-05-09 13:50 | 11.93095 | 121.96666 | 482 ft | 152 kts | 63° |
| 2026-05-09 13:50 | 11.93594 | 121.97634 | 1220 ft | 156 kts | 63° |
| 2026-05-09 13:51 | 11.94123 | 121.98654 | 1681 ft | 172 kts | 64° |
| 2026-05-09 13:51 | 11.94702 | 121.99815 | 2018 ft | 196 kts | 64° |
| 2026-05-09 13:51 | 11.95351 | 122.01130 | 2475 ft | 215 kts | 64° |
| 2026-05-09 13:51 | 11.96100 | 122.02477 | 3267 ft | 222 kts | 52° |
| 2026-05-09 13:52 | 11.97341 | 122.03486 | 3892 ft | 242 kts | 31° |
| 2026-05-09 13:52 | 11.98907 | 122.04298 | 4493 ft | 259 kts | 29° |
| 2026-05-09 13:52 | 12.00546 | 122.05115 | 5340 ft | 264 kts | 28° |
| 2026-05-09 13:52 | 12.02192 | 122.05928 | 6210 ft | 268 kts | 28° |
| 2026-05-09 13:53 | 12.03887 | 122.06770 | 7038 ft | 273 kts | 28° |
| 2026-05-09 13:53 | 12.05611 | 122.07633 | 7704 ft | 279 kts | 29° |
| 2026-05-09 13:53 | 12.07360 | 122.08511 | 8427 ft | 281 kts | 29° |
| 2026-05-09 13:53 | 12.09114 | 122.09398 | 9272 ft | 284 kts | 29° |
| 2026-05-09 13:54 | 12.10908 | 122.10306 | 10061 ft | 289 kts | 29° |
| 2026-05-09 13:54 | 12.12744 | 122.11235 | 10547 ft | 304 kts | 29° |
| 2026-05-09 13:54 | 12.14709 | 122.12237 | 10776 ft | 327 kts | 29° |
| 2026-05-09 13:54 | 12.16797 | 122.13300 | 11183 ft | 341 kts | 29° |
| 2026-05-09 13:55 | 12.18943 | 122.14387 | 11818 ft | 347 kts | 29° |
| 2026-05-09 13:55 | 12.21120 | 122.15488 | 12485 ft | 351 kts | 29° |
| 2026-05-09 13:55 | 12.23324 | 122.16605 | 13158 ft | 356 kts | 29° |
| 2026-05-09 13:55 | 12.25554 | 122.17736 | 13800 ft | 360 kts | 29° |
| 2026-05-09 13:56 | 12.27808 | 122.18878 | 14377 ft | 363 kts | 29° |
| 2026-05-09 13:56 | 12.30080 | 122.20030 | 14964 ft | 366 kts | 29° |
| 2026-05-09 13:56 | 12.32406 | 122.21132 | 15527 ft | 371 kts | 22° |
| 2026-05-09 13:56 | 12.34940 | 122.21733 | 16087 ft | 379 kts | 8° |
| 2026-05-09 13:57 | 12.36693 | 122.21769 | 16466 ft | 383 kts | 358° |
| 2026-05-09 13:57 | 12.39325 | 122.21242 | 17025 ft | 390 kts | 343° |
| 2026-05-09 13:57 | 12.41781 | 122.20032 | 17581 ft | 396 kts | 329° |
| 2026-05-09 13:57 | 12.44070 | 122.18452 | 18161 ft | 398 kts | 327° |
| 2026-05-09 13:58 | 12.46367 | 122.16855 | 18643 ft | 400 kts | 327° |
| 2026-05-09 13:58 | 12.49430 | 122.14724 | 19284 ft | 404 kts | 327° |
| 2026-05-09 13:58 | 12.51002 | 122.13628 | 19612 ft | 405 kts | 327° |
| 2026-05-09 13:58 | 12.53341 | 122.11999 | 20098 ft | 408 kts | 327° |
| 2026-05-09 13:59 | 12.55695 | 122.10358 | 20589 ft | 411 kts | 327° |
| 2026-05-09 13:59 | 12.58065 | 122.08706 | 21068 ft | 414 kts | 327° |
| 2026-05-09 13:59 | 12.60455 | 122.07046 | 21554 ft | 416 kts | 327° |
| 2026-05-09 13:59 | 12.62862 | 122.05375 | 22052 ft | 419 kts | 327° |
| 2026-05-09 14:00 | 12.65248 | 122.03717 | 22517 ft | 422 kts | 327° |
| 2026-05-09 14:00 | 12.66891 | 122.02574 | 22810 ft | 424 kts | 327° |
| 2026-05-09 14:00 | 12.70136 | 122.00316 | 23416 ft | 428 kts | 327° |
| 2026-05-09 14:00 | 12.72604 | 121.98597 | 23756 ft | 430 kts | 327° |
| 2026-05-09 14:01 | 12.75081 | 121.96872 | 23880 ft | 430 kts | 327° |
| 2026-05-09 14:01 | 12.77543 | 121.95155 | 23903 ft | 427 kts | 326° |
| 2026-05-09 14:01 | 12.79993 | 121.93442 | 23906 ft | 426 kts | 326° |
| 2026-05-09 14:01 | 12.82439 | 121.91733 | 23906 ft | 425 kts | 326° |
| 2026-05-09 14:02 | 12.84886 | 121.90027 | 23906 ft | 425 kts | 327° |
| 2026-05-09 14:02 | 12.87332 | 121.88325 | 23903 ft | 425 kts | 326° |
| 2026-05-09 14:02 | 12.89776 | 121.86622 | 23903 ft | 425 kts | 326° |
| 2026-05-09 14:02 | 12.92214 | 121.84920 | 23903 ft | 425 kts | 326° |
| 2026-05-09 14:03 | 12.94661 | 121.83215 | 23906 ft | 424 kts | 326° |
| 2026-05-09 14:03 | 12.97110 | 121.81510 | 23900 ft | 424 kts | 327° |
| 2026-05-09 14:03 | 12.99555 | 121.79812 | 23899 ft | 424 kts | 326° |
| 2026-05-09 14:03 | 13.01997 | 121.78114 | 23900 ft | 424 kts | 326° |
| 2026-05-09 14:04 | 13.04441 | 121.76410 | 23897 ft | 424 kts | 326° |
| 2026-05-09 14:04 | 13.06882 | 121.74705 | 23897 ft | 424 kts | 326° |
| 2026-05-09 14:04 | 13.09320 | 121.72998 | 23901 ft | 424 kts | 326° |
| 2026-05-09 14:04 | 13.11755 | 121.71288 | 23899 ft | 424 kts | 326° |
| 2026-05-09 14:05 | 13.14191 | 121.69580 | 23896 ft | 424 kts | 326° |
| 2026-05-09 14:05 | 13.16603 | 121.67894 | 23896 ft | 424 kts | 326° |
| 2026-05-09 14:05 | 13.19027 | 121.66198 | 23748 ft | 419 kts | 326° |
| 2026-05-09 14:05 | 13.21424 | 121.64522 | 23570 ft | 416 kts | 326° |
| 2026-05-09 14:06 | 13.23808 | 121.62858 | 23336 ft | 413 kts | 326° |
| 2026-05-09 14:06 | 13.26183 | 121.61199 | 23077 ft | 412 kts | 326° |
| 2026-05-09 14:06 | 13.28542 | 121.59547 | 22819 ft | 410 kts | 326° |
| 2026-05-09 14:06 | 13.30894 | 121.57897 | 22567 ft | 408 kts | 326° |
| 2026-05-09 14:07 | 13.33235 | 121.56255 | 22315 ft | 407 kts | 326° |
| 2026-05-09 14:07 | 13.35568 | 121.54618 | 22065 ft | 405 kts | 327° |
| 2026-05-09 14:07 | 13.37890 | 121.52989 | 21817 ft | 404 kts | 327° |
| 2026-05-09 14:07 | 13.40208 | 121.51366 | 21577 ft | 402 kts | 327° |
| 2026-05-09 14:08 | 13.42497 | 121.49766 | 21335 ft | 400 kts | 327° |
| 2026-05-09 14:08 | 13.44794 | 121.48159 | 21092 ft | 399 kts | 327° |
| 2026-05-09 14:08 | 13.47080 | 121.46559 | 20852 ft | 397 kts | 326° |
| 2026-05-09 14:08 | 13.49357 | 121.44964 | 20616 ft | 395 kts | 327° |
| 2026-05-09 14:09 | 13.51620 | 121.43377 | 20386 ft | 393 kts | 327° |
| 2026-05-09 14:09 | 13.53869 | 121.41794 | 20142 ft | 387 kts | 327° |
| 2026-05-09 14:09 | 13.56059 | 121.40254 | 19956 ft | 376 kts | 327° |
| 2026-05-09 14:09 | 13.58175 | 121.38760 | 19911 ft | 361 kts | 326° |
| 2026-05-09 14:10 | 13.62172 | 121.35809 | 19609 ft | 349 kts | 325° |
| 2026-05-09 14:10 | 13.64123 | 121.34334 | 19380 ft | 347 kts | 325° |
| 2026-05-09 14:10 | 13.66063 | 121.32867 | 19152 ft | 346 kts | 325° |
| 2026-05-09 14:11 | 13.68000 | 121.31407 | 18920 ft | 344 kts | 325° |
| 2026-05-09 14:11 | 13.69934 | 121.29959 | 18706 ft | 343 kts | 326° |
| 2026-05-09 14:11 | 13.71864 | 121.28520 | 18485 ft | 342 kts | 326° |
| 2026-05-09 14:11 | 13.73786 | 121.27090 | 18265 ft | 341 kts | 326° |
| 2026-05-09 14:12 | 13.75703 | 121.25664 | 18017 ft | 339 kts | 326° |
| 2026-05-09 14:12 | 13.77610 | 121.24244 | 17762 ft | 338 kts | 326° |
| 2026-05-09 14:12 | 13.79516 | 121.22824 | 17508 ft | 338 kts | 326° |
| 2026-05-09 14:12 | 13.81418 | 121.21405 | 17253 ft | 337 kts | 326° |
| 2026-05-09 14:13 | 13.83316 | 121.19988 | 17010 ft | 336 kts | 326° |
| 2026-05-09 14:14 | 13.96302 | 121.10286 | 14799 ft | 324 kts | 326° |
| 2026-05-09 14:15 | 13.98125 | 121.08926 | 14470 ft | 322 kts | 326° |
| 2026-05-09 14:15 | 13.99935 | 121.07576 | 14144 ft | 321 kts | 326° |
| 2026-05-09 14:15 | 14.01737 | 121.06232 | 13821 ft | 319 kts | 326° |
| 2026-05-09 14:15 | 14.03533 | 121.04890 | 13473 ft | 318 kts | 326° |
| 2026-05-09 14:16 | 14.05320 | 121.03556 | 13120 ft | 316 kts | 326° |
| 2026-05-09 14:16 | 14.07097 | 121.02226 | 12765 ft | 315 kts | 326° |
| 2026-05-09 14:16 | 14.08861 | 121.00902 | 12410 ft | 313 kts | 326° |
| 2026-05-09 14:16 | 14.10616 | 120.99582 | 12068 ft | 312 kts | 326° |
| 2026-05-09 14:17 | 14.12363 | 120.98272 | 11719 ft | 310 kts | 326° |
| 2026-05-09 14:17 | 14.14075 | 120.96988 | 11508 ft | 304 kts | 326° |
| 2026-05-09 14:17 | 14.15754 | 120.95727 | 11387 ft | 294 kts | 326° |
| 2026-05-09 14:17 | 14.17397 | 120.94526 | 11229 ft | 286 kts | 331° |
| 2026-05-09 14:18 | 14.19099 | 120.93512 | 10851 ft | 280 kts | 333° |
| 2026-05-09 14:18 | 14.20788 | 120.92517 | 10314 ft | 279 kts | 333° |
| 2026-05-09 14:18 | 14.22462 | 120.91528 | 9777 ft | 277 kts | 333° |
| 2026-05-09 14:18 | 14.24111 | 120.90514 | 9225 ft | 274 kts | 324° |
| 2026-05-09 14:19 | 14.25346 | 120.89078 | 9105 ft | 266 kts | 300° |
| 2026-05-09 14:19 | 14.25903 | 120.87298 | 8966 ft | 259 kts | 275° |
| 2026-05-09 14:19 | 14.25733 | 120.85483 | 8691 ft | 254 kts | 250° |
| 2026-05-09 14:19 | 14.24955 | 120.83861 | 8358 ft | 252 kts | 238° |
| 2026-05-09 14:20 | 14.24093 | 120.82318 | 8033 ft | 251 kts | 239° |
| 2026-05-09 14:20 | 14.23224 | 120.80758 | 7710 ft | 250 kts | 239° |
| 2026-05-09 14:20 | 14.22363 | 120.79207 | 7403 ft | 249 kts | 239° |
| 2026-05-09 14:21 | 14.20654 | 120.76137 | 7107 ft | 247 kts | 239° |
| 2026-05-09 14:21 | 14.19791 | 120.74600 | 6988 ft | 248 kts | 239° |
| 2026-05-09 14:21 | 14.18923 | 120.73069 | 6864 ft | 247 kts | 239° |
| 2026-05-09 14:21 | 14.18056 | 120.71540 | 6753 ft | 247 kts | 239° |
| 2026-05-09 14:22 | 14.17194 | 120.70018 | 6631 ft | 246 kts | 239° |
| 2026-05-09 14:22 | 14.16332 | 120.68495 | 6516 ft | 246 kts | 239° |
| 2026-05-09 14:22 | 14.15472 | 120.66976 | 6406 ft | 245 kts | 238° |
| 2026-05-09 14:22 | 14.14624 | 120.65477 | 6291 ft | 245 kts | 238° |
| 2026-05-09 14:23 | 14.13765 | 120.63959 | 6154 ft | 245 kts | 239° |
| 2026-05-09 14:23 | 14.13227 | 120.62315 | 6007 ft | 243 kts | 265° |
| 2026-05-09 14:23 | 14.13432 | 120.60604 | 5949 ft | 242 kts | 293° |
| 2026-05-09 14:23 | 14.14339 | 120.59179 | 5897 ft | 237 kts | 321° |
| 2026-05-09 14:24 | 14.15737 | 120.58327 | 5849 ft | 232 kts | 347° |
| 2026-05-09 14:24 | 14.17308 | 120.58173 | 5795 ft | 225 kts | 12° |
| 2026-05-09 14:24 | 14.18753 | 120.58691 | 5748 ft | 219 kts | 36° |
| 2026-05-09 14:24 | 14.19986 | 120.59611 | 5703 ft | 219 kts | 39° |
| 2026-05-09 14:25 | 14.21210 | 120.60544 | 5658 ft | 219 kts | 39° |
| 2026-05-09 14:25 | 14.22436 | 120.61478 | 5608 ft | 219 kts | 39° |
| 2026-05-09 14:25 | 14.23656 | 120.62407 | 5563 ft | 217 kts | 39° |
| 2026-05-09 14:25 | 14.24870 | 120.63330 | 5513 ft | 218 kts | 40° |
| 2026-05-09 14:26 | 14.26092 | 120.64256 | 5469 ft | 218 kts | 37° |
| 2026-05-09 14:26 | 14.27316 | 120.65182 | 5419 ft | 217 kts | 38° |
| 2026-05-09 14:26 | 14.28536 | 120.66107 | 5371 ft | 218 kts | 39° |
| 2026-05-09 14:26 | 14.29762 | 120.67034 | 5324 ft | 218 kts | 38° |
| 2026-05-09 14:27 | 14.30983 | 120.67957 | 5276 ft | 218 kts | 39° |
| 2026-05-09 14:27 | 14.32184 | 120.68911 | 5222 ft | 217 kts | 45° |
| 2026-05-09 14:27 | 14.33135 | 120.70071 | 5182 ft | 214 kts | 59° |
| 2026-05-09 14:27 | 14.33878 | 120.71403 | 5129 ft | 215 kts | 62° |
| 2026-05-09 14:28 | 14.34614 | 120.72733 | 5098 ft | 210 kts | 62° |
| 2026-05-09 14:28 | 14.35319 | 120.74000 | 5050 ft | 197 kts | 62° |
| 2026-05-09 14:28 | 14.35993 | 120.75210 | 5007 ft | 193 kts | 62° |
| 2026-05-09 14:28 | 14.36658 | 120.76412 | 4927 ft | 194 kts | 62° |
| 2026-05-09 14:29 | 14.37323 | 120.77616 | 4707 ft | 192 kts | 62° |
| 2026-05-09 14:29 | 14.37986 | 120.78811 | 4461 ft | 191 kts | 62° |
| 2026-05-09 14:29 | 14.38646 | 120.79997 | 4215 ft | 190 kts | 62° |
| 2026-05-09 14:29 | 14.39304 | 120.81177 | 3973 ft | 189 kts | 62° |
| 2026-05-09 14:30 | 14.39957 | 120.82349 | 3739 ft | 188 kts | 62° |
| 2026-05-09 14:30 | 14.40606 | 120.83515 | 3507 ft | 187 kts | 62° |
| 2026-05-09 14:30 | 14.41246 | 120.84663 | 3282 ft | 182 kts | 62° |
| 2026-05-09 14:30 | 14.41869 | 120.85783 | 3033 ft | 177 kts | 62° |
| 2026-05-09 14:31 | 14.42473 | 120.86867 | 2810 ft | 171 kts | 62° |
| 2026-05-09 14:31 | 14.43059 | 120.87920 | 2592 ft | 166 kts | 62° |
| 2026-05-09 14:31 | 14.43610 | 120.88908 | 2390 ft | 156 kts | 61° |
| 2026-05-09 14:31 | 14.44144 | 120.89867 | 2170 ft | 149 kts | 60° |
| 2026-05-09 14:32 | 14.44650 | 120.90775 | 1986 ft | 147 kts | 61° |
| 2026-05-09 14:32 | 14.45164 | 120.91698 | 1806 ft | 145 kts | 60° |
| 2026-05-09 14:32 | 14.45655 | 120.92582 | 1622 ft | 144 kts | 60° |
| 2026-05-09 14:32 | 14.46153 | 120.93477 | 1444 ft | 143 kts | 60° |
| 2026-05-09 14:33 | 14.46650 | 120.94369 | 1253 ft | 143 kts | 60° |
| 2026-05-09 14:33 | 14.47144 | 120.95260 | 1068 ft | 144 kts | 59° |
| 2026-05-09 14:33 | 14.47641 | 120.96154 | 899 ft | 144 kts | 59° |
| 2026-05-09 14:33 | 14.48136 | 120.97050 | 725 ft | 143 kts | 61° |
| 2026-05-09 14:34 | 14.48636 | 120.97934 | 572 ft | 143 kts | 60° |
| 2026-05-09 14:34 | 14.49146 | 120.98857 | 525 ft | 160 kts | 60° |
| 2026-05-09 14:34 | 14.49677 | 120.99859 | 1424 ft | 160 kts | 61° |
| 2026-05-09 14:34 | 14.50247 | 121.00907 | 1908 ft | 178 kts | 60° |
| 2026-05-09 14:35 | 14.50912 | 121.02090 | 2240 ft | 204 kts | 60° |
| 2026-05-09 14:35 | 14.51649 | 121.03392 | 2894 ft | 212 kts | 60° |
| 2026-05-09 14:35 | 14.52404 | 121.04695 | 3795 ft | 212 kts | 60° |
| 2026-05-09 14:35 | 14.53175 | 121.06000 | 4609 ft | 216 kts | 60° |
| 2026-05-09 14:36 | 14.53962 | 121.07326 | 4898 ft | 217 kts | 60° |
| 2026-05-09 14:36 | 14.54750 | 121.08654 | 4984 ft | 216 kts | 60° |
| 2026-05-09 14:36 | 14.55534 | 121.09979 | 5008 ft | 216 kts | 60° |
| 2026-05-09 14:36 | 14.56316 | 121.11302 | 5009 ft | 216 kts | 60° |
| 2026-05-09 14:37 | 14.57099 | 121.12623 | 5007 ft | 216 kts | 60° |
| 2026-05-09 14:37 | 14.57883 | 121.13949 | 5008 ft | 216 kts | 60° |
| 2026-05-09 14:37 | 14.58668 | 121.15273 | 5011 ft | 216 kts | 60° |
| 2026-05-09 14:37 | 14.59452 | 121.16595 | 5009 ft | 216 kts | 60° |
| 2026-05-09 14:38 | 14.60236 | 121.17917 | 5014 ft | 216 kts | 60° |
| 2026-05-09 14:38 | 14.61006 | 121.19245 | 5018 ft | 215 kts | 65° |
| 2026-05-09 14:38 | 14.61271 | 121.20734 | 5014 ft | 213 kts | 99° |
| 2026-05-09 14:38 | 14.60650 | 121.22105 | 5021 ft | 216 kts | 133° |
| 2026-05-09 14:39 | 14.59352 | 121.22873 | 5018 ft | 222 kts | 167° |
| 2026-05-09 14:39 | 14.57794 | 121.22874 | 5024 ft | 227 kts | 184° |
| 2026-05-09 14:39 | 14.56227 | 121.22635 | 5016 ft | 228 kts | 186° |
| 2026-05-09 14:39 | 14.54663 | 121.22362 | 5014 ft | 228 kts | 187° |
| 2026-05-09 14:40 | 14.53157 | 121.22094 | 5014 ft | 228 kts | 187° |
| 2026-05-09 14:40 | 14.51597 | 121.21813 | 5014 ft | 227 kts | 187° |
| 2026-05-09 14:40 | 14.50040 | 121.21532 | 5013 ft | 228 kts | 187° |
| 2026-05-09 14:40 | 14.48496 | 121.21256 | 5011 ft | 228 kts | 187° |
| 2026-05-09 14:41 | 14.46935 | 121.20974 | 5015 ft | 228 kts | 187° |
| 2026-05-09 14:41 | 14.45372 | 121.20692 | 5015 ft | 228 kts | 187° |
| 2026-05-09 14:41 | 14.43810 | 121.20412 | 5014 ft | 227 kts | 187° |
| 2026-05-09 14:41 | 14.42316 | 121.19887 | 5007 ft | 231 kts | 213° |
| 2026-05-09 14:42 | 14.41216 | 121.18672 | 5014 ft | 235 kts | 233° |
| 2026-05-09 14:42 | 14.40323 | 121.17260 | 5013 ft | 235 kts | 237° |
| 2026-05-09 14:42 | 14.39458 | 121.15820 | 5010 ft | 237 kts | 237° |
| 2026-05-09 14:42 | 14.38890 | 121.14858 | 5014 ft | 238 kts | 237° |
| 2026-05-09 14:43 | 14.38032 | 121.13391 | 5016 ft | 239 kts | 237° |
| 2026-05-09 14:43 | 14.37179 | 121.11920 | 5015 ft | 239 kts | 237° |
| 2026-05-09 14:43 | 14.36045 | 121.09975 | 5014 ft | 239 kts | 237° |
| 2026-05-09 14:43 | 14.35191 | 121.08501 | 5010 ft | 239 kts | 237° |
| 2026-05-09 14:44 | 14.34337 | 121.07029 | 5009 ft | 239 kts | 237° |
| 2026-05-09 14:44 | 14.33481 | 121.05559 | 5012 ft | 240 kts | 237° |
| 2026-05-09 14:44 | 14.32625 | 121.04084 | 5008 ft | 239 kts | 237° |
| 2026-05-09 14:44 | 14.31771 | 121.02612 | 5010 ft | 239 kts | 237° |
| 2026-05-09 14:45 | 14.30918 | 121.01142 | 5009 ft | 239 kts | 237° |
| 2026-05-09 14:45 | 14.30069 | 120.99672 | 5013 ft | 238 kts | 237° |
| 2026-05-09 14:45 | 14.29217 | 120.98209 | 5012 ft | 238 kts | 237° |
| 2026-05-09 14:45 | 14.28371 | 120.96742 | 5012 ft | 238 kts | 242° |
| 2026-05-09 14:46 | 14.27968 | 120.95110 | 4838 ft | 237 kts | 270° |
| 2026-05-09 14:46 | 14.28054 | 120.93414 | 4513 ft | 237 kts | 276° |
| 2026-05-09 14:46 | 14.28222 | 120.91722 | 4189 ft | 237 kts | 277° |
| 2026-05-09 14:46 | 14.28401 | 120.90039 | 3891 ft | 236 kts | 277° |
| 2026-05-09 14:47 | 14.28578 | 120.88359 | 3613 ft | 235 kts | 277° |
| 2026-05-09 14:47 | 14.28756 | 120.86683 | 3335 ft | 235 kts | 277° |
| 2026-05-09 14:47 | 14.28939 | 120.85011 | 3071 ft | 233 kts | 278° |
| 2026-05-09 14:47 | 14.29191 | 120.83945 | 3012 ft | 231 kts | 296° |
| 2026-05-09 14:48 | 14.30085 | 120.82619 | 3015 ft | 220 kts | 323° |
| 2026-05-09 14:48 | 14.31351 | 120.81880 | 3014 ft | 204 kts | 349° |
| 2026-05-09 14:48 | 14.32722 | 120.81722 | 3019 ft | 195 kts | 4° |
| 2026-05-09 14:48 | 14.34489 | 120.81685 | 3046 ft | 179 kts | 4° |
| 2026-05-09 14:49 | 14.35291 | 120.81665 | 3024 ft | 169 kts | 5° |
| 2026-05-09 14:49 | 14.36415 | 120.81637 | 3002 ft | 155 kts | 5° |
| 2026-05-09 14:49 | 14.37466 | 120.81634 | 3002 ft | 147 kts | 12° |
| 2026-05-09 14:49 | 14.38445 | 120.81843 | 3010 ft | 142 kts | 26° |
| 2026-05-09 14:50 | 14.39322 | 120.82266 | 3016 ft | 138 kts | 38° |
| 2026-05-09 14:50 | 14.40046 | 120.82881 | 3003 ft | 133 kts | 58° |
| 2026-05-09 14:50 | 14.40581 | 120.83668 | 3015 ft | 135 kts | 59° |
| 2026-05-09 14:50 | 14.41089 | 120.84481 | 3019 ft | 135 kts | 61° |
| 2026-05-09 14:51 | 14.41578 | 120.85309 | 3005 ft | 136 kts | 62° |
| 2026-05-09 14:51 | 14.42057 | 120.86144 | 2909 ft | 135 kts | 62° |
| 2026-05-09 14:51 | 14.42529 | 120.86980 | 2760 ft | 135 kts | 62° |
| 2026-05-09 14:51 | 14.42991 | 120.87804 | 2613 ft | 134 kts | 62° |
| 2026-05-09 14:52 | 14.43459 | 120.88641 | 2442 ft | 134 kts | 61° |
| 2026-05-09 14:52 | 14.43930 | 120.89486 | 2264 ft | 139 kts | 60° |
| 2026-05-09 14:52 | 14.44414 | 120.90355 | 2092 ft | 139 kts | 60° |
| 2026-05-09 14:52 | 14.44898 | 120.91225 | 1946 ft | 141 kts | 60° |
| 2026-05-09 14:53 | 14.45380 | 120.92090 | 1739 ft | 137 kts | 59° |
| 2026-05-09 14:53 | 14.45859 | 120.92950 | 1486 ft | 143 kts | 63° |
| 2026-05-09 14:53 | 14.46346 | 120.93820 | 1293 ft | 135 kts | 56° |
| 2026-05-09 14:53 | 14.46820 | 120.94668 | 1140 ft | 136 kts | 53° |
| 2026-05-09 14:54 | 14.47291 | 120.95509 | 987 ft | 135 kts | 58° |
| 2026-05-09 14:54 | 14.47758 | 120.96357 | 880 ft | 136 kts | 60° |
| 2026-05-09 14:54 | 14.48241 | 120.97198 | 698 ft | 136 kts | 61° |
| 2026-05-09 14:54 | 14.48701 | 120.98045 | 520 ft | 137 kts | 61° |
| 2026-05-09 14:55 | 14.49163 | 120.98884 | 383 ft | 135 kts | 61° |
| 2026-05-09 14:55 | 14.49623 | 120.99711 | 205 ft | 134 kts | 61° |
| 2026-05-09 14:55 | 14.50081 | 121.00530 | 85 ft | 124 kts | 62° |
| 2026-05-09 14:55 | 14.50446 | 121.01201 | 62 ft | 84 kts | 59° |
| 2026-05-09 14:56 | 14.50658 | 121.01578 | 64 ft | 47 kts | 60° |
| 2026-05-09 14:56 | 14.50806 | 121.01745 | 61 ft | 20 kts | 43° |
| 2026-05-09 14:56 | 14.50861 | 121.01785 | 68 ft | 5 kts | 17° |
| 2026-05-09 14:56 | 14.50888 | 121.01780 | 68 ft | 7 kts | 333° |
| 2026-05-09 14:57 | 14.50899 | 121.01734 | 60 ft | 7 kts | 247° |
| 2026-05-09 14:57 | 14.50885 | 121.01690 | 67 ft | 6 kts | 266° |
| 2026-05-09 14:57 | 14.50901 | 121.01659 | 62 ft | 5 kts | 308° |
| 2026-05-09 14:57 | 14.50916 | 121.01634 | 65 ft | 4 kts | 290° |
| 2026-05-09 14:58 | 14.50889 | 121.01564 | 66 ft | 15 kts | 241° |
| 2026-05-09 14:58 | 14.50840 | 121.01475 | 64 ft | 14 kts | 241° |
| 2026-05-09 14:58 | 14.50794 | 121.01394 | 67 ft | 13 kts | 240° |
| 2026-05-09 14:58 | 14.50777 | 121.01354 | 64 ft | 2 kts | 272° |
| 2026-05-09 14:59 | 14.50793 | 121.01336 | 66 ft | 7 kts | 321° |
| 2026-05-09 14:59 | 14.50837 | 121.01309 | 66 ft | 7 kts | 330° |
| 2026-05-09 14:59 | 14.50846 | 121.01304 | 68 ft | 0 kts | 330° |